sensor_id;sensor_type;location;lat;lon;timestamp;P1;durP1;ratioP1;P2;durP2;ratioP2
64022;SDS011;50264;52.088;5.296;2023-04-23T00:01:06;114.6;;;79.61;;
64022;SDS011;50264;52.088;5.296;2023-04-23T00:02:43;113.1;;;76.7;;
64022;SDS011;50264;52.088;5.296;2023-04-23T00:04:20;100.3;;;73.8;;
64022;SDS011;50264;52.088;5.296;2023-04-23T00:07:39;105.7;;;78.3;;
64022;SDS011;50264;52.088;5.296;2023-04-23T00:09:18;117.2;;;81.61;;
64022;SDS011;50264;52.088;5.296;2023-04-23T00:10:57;112.7;;;81.8;;
64022;SDS011;50264;52.088;5.296;2023-04-23T00:12:34;110.5;;;78.91;;
64022;SDS011;50264;52.088;5.296;2023-04-23T00:15:48;117.3;;;75.5;;
64022;SDS011;50264;52.088;5.296;2023-04-23T00:17:25;104.9;;;73.41;;
64022;SDS011;50264;52.088;5.296;2023-04-23T00:19:01;114.5;;;80.0;;
64022;SDS011;50264;52.088;5.296;2023-04-23T00:22:14;126.0;;;81.2;;
64022;SDS011;50264;52.088;5.296;2023-04-23T00:23:51;119.7;;;80.61;;
64022;SDS011;50264;52.088;5.296;2023-04-23T00:25:28;116.1;;;76.11;;
64022;SDS011;50264;52.088;5.296;2023-04-23T00:28:41;116.3;;;76.61;;
64022;SDS011;50264;52.088;5.296;2023-04-23T00:30:17;102.4;;;70.3;;
64022;SDS011;50264;52.088;5.296;2023-04-23T00:31:53;103.9;;;73.11;;
64022;SDS011;50264;52.088;5.296;2023-04-23T00:33:29;119.6;;;80.2;;
64022;SDS011;50264;52.088;5.296;2023-04-23T00:36:43;112.0;;;77.7;;
64022;SDS011;50264;52.088;5.296;2023-04-23T00:38:20;123.6;;;81.41;;
64022;SDS011;50264;52.088;5.296;2023-04-23T00:39:56;117.4;;;80.41;;
64022;SDS011;50264;52.088;5.296;2023-04-23T00:43:09;114.9;;;78.5;;
64022;SDS011;50264;52.088;5.296;2023-04-23T00:44:45;134.5;;;86.9;;
64022;SDS011;50264;52.088;5.296;2023-04-23T00:46:23;132.31;;;90.1;;
64022;SDS011;50264;52.088;5.296;2023-04-23T00:49:37;134.0;;;92.0;;
64022;SDS011;50264;52.088;5.296;2023-04-23T00:51:14;133.2;;;82.6;;
64022;SDS011;50264;52.088;5.296;2023-04-23T00:52:52;168.8;;;96.1;;
64022;SDS011;50264;52.088;5.296;2023-04-23T00:54:28;126.8;;;84.0;;
64022;SDS011;50264;52.088;5.296;2023-04-23T00:57:42;136.1;;;83.1;;
64022;SDS011;50264;52.088;5.296;2023-04-23T00:59:19;119.4;;;82.0;;
64022;SDS011;50264;52.088;5.296;2023-04-23T01:00:56;119.8;;;81.3;;
64022;SDS011;50264;52.088;5.296;2023-04-23T01:04:12;123.8;;;81.11;;
64022;SDS011;50264;52.088;5.296;2023-04-23T01:05:51;133.2;;;84.0;;
64022;SDS011;50264;52.088;5.296;2023-04-23T01:07:28;110.6;;;78.5;;
64022;SDS011;50264;52.088;5.296;2023-04-23T01:09:05;125.4;;;84.0;;
64022;SDS011;50264;52.088;5.296;2023-04-23T01:12:20;125.6;;;83.6;;
64022;SDS011;50264;52.088;5.296;2023-04-23T01:13:58;121.4;;;81.7;;
64022;SDS011;50264;52.088;5.296;2023-04-23T01:15:34;128.4;;;88.0;;
64022;SDS011;50264;52.088;5.296;2023-04-23T01:18:47;108.9;;;79.91;;
64022;SDS011;50264;52.088;5.296;2023-04-23T01:20:23;115.0;;;77.8;;
64022;SDS011;50264;52.088;5.296;2023-04-23T01:22:00;111.5;;;81.3;;
64022;SDS011;50264;52.088;5.296;2023-04-23T01:25:14;117.8;;;81.8;;
64022;SDS011;50264;52.088;5.296;2023-04-23T01:26:50;130.0;;;84.8;;
64022;SDS011;50264;52.088;5.296;2023-04-23T01:28:28;104.7;;;80.8;;
64022;SDS011;50264;52.088;5.296;2023-04-23T01:30:05;116.1;;;83.7;;
64022;SDS011;50264;52.088;5.296;2023-04-23T01:33:19;104.7;;;77.5;;
64022;SDS011;50264;52.088;5.296;2023-04-23T01:34:55;104.7;;;77.5;;
64022;SDS011;50264;52.088;5.296;2023-04-23T01:36:32;116.6;;;78.7;;
64022;SDS011;50264;52.088;5.296;2023-04-23T01:39:49;122.2;;;83.0;;
64022;SDS011;50264;52.088;5.296;2023-04-23T01:41:25;120.4;;;80.7;;
64022;SDS011;50264;52.088;5.296;2023-04-23T01:43:04;132.31;;;86.7;;
64022;SDS011;50264;52.088;5.296;2023-04-23T01:44:42;124.0;;;82.6;;
64022;SDS011;50264;52.088;5.296;2023-04-23T01:47:56;118.4;;;78.5;;
64022;SDS011;50264;52.088;5.296;2023-04-23T01:49:33;126.9;;;82.6;;
64022;SDS011;50264;52.088;5.296;2023-04-23T01:51:09;131.7;;;86.0;;
64022;SDS011;50264;52.088;5.296;2023-04-23T01:54:22;144.5;;;88.7;;
64022;SDS011;50264;52.088;5.296;2023-04-23T01:55:57;130.31;;;79.0;;
64022;SDS011;50264;52.088;5.296;2023-04-23T01:57:36;124.8;;;80.41;;
64022;SDS011;50264;52.088;5.296;2023-04-23T01:59:13;113.8;;;76.61;;
64022;SDS011;50264;52.088;5.296;2023-04-23T02:02:26;118.3;;;78.61;;
64022;SDS011;50264;52.088;5.296;2023-04-23T02:04:02;124.8;;;80.91;;
64022;SDS011;50264;52.088;5.296;2023-04-23T02:05:40;132.5;;;87.6;;
64022;SDS011;50264;52.088;5.296;2023-04-23T02:08:54;130.2;;;77.5;;
64022;SDS011;50264;52.088;5.296;2023-04-23T02:10:30;117.8;;;78.3;;
64022;SDS011;50264;52.088;5.296;2023-04-23T02:12:06;123.5;;;80.2;;
64022;SDS011;50264;52.088;5.296;2023-04-23T02:15:18;125.5;;;81.91;;
64022;SDS011;50264;52.088;5.296;2023-04-23T02:16:54;119.8;;;79.11;;
64022;SDS011;50264;52.088;5.296;2023-04-23T02:18:30;120.4;;;81.5;;
64022;SDS011;50264;52.088;5.296;2023-04-23T02:20:07;125.3;;;78.8;;
64022;SDS011;50264;52.088;5.296;2023-04-23T02:23:21;140.1;;;89.8;;
64022;SDS011;50264;52.088;5.296;2023-04-23T02:24:57;107.3;;;74.2;;
64022;SDS011;50264;52.088;5.296;2023-04-23T02:26:34;132.4;;;81.0;;
64022;SDS011;50264;52.088;5.296;2023-04-23T02:29:47;123.3;;;85.6;;
64022;SDS011;50264;52.088;5.296;2023-04-23T02:31:24;125.5;;;84.6;;
64022;SDS011;50264;52.088;5.296;2023-04-23T02:33:00;125.7;;;85.7;;
64022;SDS011;50264;52.088;5.296;2023-04-23T02:36:13;134.6;;;82.4;;
64022;SDS011;50264;52.088;5.296;2023-04-23T02:37:50;122.8;;;80.5;;
64022;SDS011;50264;52.088;5.296;2023-04-23T02:39:27;125.5;;;84.3;;
64022;SDS011;50264;52.088;5.296;2023-04-23T02:41:04;124.3;;;75.8;;
64022;SDS011;50264;52.088;5.296;2023-04-23T02:44:17;124.0;;;77.41;;
64022;SDS011;50264;52.088;5.296;2023-04-23T02:45:53;116.1;;;75.61;;
64022;SDS011;50264;52.088;5.296;2023-04-23T02:47:29;132.2;;;84.0;;
64022;SDS011;50264;52.088;5.296;2023-04-23T02:50:42;142.21;;;83.7;;
64022;SDS011;50264;52.088;5.296;2023-04-23T02:52:19;116.4;;;76.41;;
64022;SDS011;50264;52.088;5.296;2023-04-23T02:53:55;121.0;;;80.8;;
64022;SDS011;50264;52.088;5.296;2023-04-23T02:57:09;111.9;;;71.3;;
64022;SDS011;50264;52.088;5.296;2023-04-23T02:58:45;100.8;;;73.11;;
64022;SDS011;50264;52.088;5.296;2023-04-23T03:00:22;126.5;;;82.3;;
64022;SDS011;50264;52.088;5.296;2023-04-23T03:01:59;123.6;;;75.3;;
64022;SDS011;50264;52.088;5.296;2023-04-23T03:05:13;117.6;;;76.61;;
64022;SDS011;50264;52.088;5.296;2023-04-23T03:06:49;105.2;;;75.5;;
64022;SDS011;50264;52.088;5.296;2023-04-23T03:08:25;119.1;;;80.41;;
64022;SDS011;50264;52.088;5.296;2023-04-23T03:11:39;116.7;;;73.0;;
64022;SDS011;50264;52.088;5.296;2023-04-23T03:13:15;116.4;;;79.0;;
64022;SDS011;50264;52.088;5.296;2023-04-23T03:14:51;94.6;;;66.5;;
64022;SDS011;50264;52.088;5.296;2023-04-23T03:18:05;109.5;;;70.3;;
64022;SDS011;50264;52.088;5.296;2023-04-23T03:19:41;112.1;;;73.0;;
64022;SDS011;50264;52.088;5.296;2023-04-23T03:21:17;105.3;;;71.41;;
64022;SDS011;50264;52.088;5.296;2023-04-23T03:22:53;92.7;;;67.41;;
64022;SDS011;50264;52.088;5.296;2023-04-23T03:26:05;94.4;;;67.5;;
64022;SDS011;50264;52.088;5.296;2023-04-23T03:27:42;104.7;;;71.7;;
64022;SDS011;50264;52.088;5.296;2023-04-23T03:29:18;104.4;;;70.41;;
64022;SDS011;50264;52.088;5.296;2023-04-23T03:32:30;112.0;;;73.11;;
64022;SDS011;50264;52.088;5.296;2023-04-23T03:34:06;99.6;;;67.3;;
64022;SDS011;50264;52.088;5.296;2023-04-23T03:35:42;97.7;;;67.8;;
64022;SDS011;50264;52.088;5.296;2023-04-23T03:38:55;93.2;;;68.1;;
64022;SDS011;50264;52.088;5.296;2023-04-23T03:40:32;92.9;;;66.6;;
64022;SDS011;50264;52.088;5.296;2023-04-23T03:42:08;98.3;;;67.91;;
64022;SDS011;50264;52.088;5.296;2023-04-23T03:45:20;97.4;;;68.3;;
64022;SDS011;50264;52.088;5.296;2023-04-23T03:46:56;100.3;;;71.11;;
64022;SDS011;50264;52.088;5.296;2023-04-23T03:48:32;98.2;;;67.3;;
64022;SDS011;50264;52.088;5.296;2023-04-23T03:50:08;97.8;;;67.8;;
64022;SDS011;50264;52.088;5.296;2023-04-23T03:53:23;96.7;;;66.1;;
64022;SDS011;50264;52.088;5.296;2023-04-23T03:54:59;94.1;;;63.0;;
64022;SDS011;50264;52.088;5.296;2023-04-23T03:56:36;95.4;;;62.6;;
64022;SDS011;50264;52.088;5.296;2023-04-23T03:59:48;94.7;;;66.5;;
64022;SDS011;50264;52.088;5.296;2023-04-23T04:01:24;89.1;;;63.3;;
64022;SDS011;50264;52.088;5.296;2023-04-23T04:03:00;98.9;;;67.41;;
64022;SDS011;50264;52.088;5.296;2023-04-23T04:06:13;94.4;;;61.9;;
64022;SDS011;50264;52.088;5.296;2023-04-23T04:07:50;85.6;;;61.3;;
64022;SDS011;50264;52.088;5.296;2023-04-23T04:09:26;83.5;;;60.2;;
64022;SDS011;50264;52.088;5.296;2023-04-23T04:11:03;100.0;;;62.7;;
64022;SDS011;50264;52.088;5.296;2023-04-23T04:14:15;84.1;;;61.7;;
64022;SDS011;50264;52.088;5.296;2023-04-23T04:15:51;86.6;;;61.7;;
64022;SDS011;50264;52.088;5.296;2023-04-23T04:17:28;86.9;;;61.0;;
64022;SDS011;50264;52.088;5.296;2023-04-23T04:20:42;84.5;;;60.3;;
64022;SDS011;50264;52.088;5.296;2023-04-23T04:22:18;88.2;;;62.0;;
64022;SDS011;50264;52.088;5.296;2023-04-23T04:23:55;93.2;;;60.0;;
64022;SDS011;50264;52.088;5.296;2023-04-23T04:27:08;81.0;;;58.5;;
64022;SDS011;50264;52.088;5.296;2023-04-23T04:28:44;101.1;;;60.9;;
64022;SDS011;50264;52.088;5.296;2023-04-23T04:30:20;83.5;;;59.2;;
64022;SDS011;50264;52.088;5.296;2023-04-23T04:31:57;74.8;;;57.8;;
64022;SDS011;50264;52.088;5.296;2023-04-23T04:35:09;79.2;;;55.3;;
64022;SDS011;50264;52.088;5.296;2023-04-23T04:36:46;80.8;;;57.6;;
64022;SDS011;50264;52.088;5.296;2023-04-23T04:38:22;92.9;;;66.91;;
64022;SDS011;50264;52.088;5.296;2023-04-23T04:41:35;69.3;;;55.8;;
64022;SDS011;50264;52.088;5.296;2023-04-23T04:43:11;84.7;;;60.3;;
64022;SDS011;50264;52.088;5.296;2023-04-23T04:44:47;77.2;;;57.7;;
64022;SDS011;50264;52.088;5.296;2023-04-23T04:49:37;77.8;;;61.2;;
64022;SDS011;50264;52.088;5.296;2023-04-23T04:51:13;82.8;;;57.4;;
64022;SDS011;50264;52.088;5.296;2023-04-23T04:52:50;80.5;;;57.7;;
64022;SDS011;50264;52.088;5.296;2023-04-23T04:56:02;77.41;;;55.1;;
64022;SDS011;50264;52.088;5.296;2023-04-23T04:57:39;85.9;;;60.1;;
64022;SDS011;50264;52.088;5.296;2023-04-23T04:59:17;85.2;;;62.2;;
64022;SDS011;50264;52.088;5.296;2023-04-23T05:02:30;73.91;;;55.3;;
64022;SDS011;50264;52.088;5.296;2023-04-23T05:04:06;66.8;;;51.8;;
64022;SDS011;50264;52.088;5.296;2023-04-23T05:05:42;65.91;;;51.4;;
64022;SDS011;50264;52.088;5.296;2023-04-23T05:08:55;68.0;;;52.2;;
64022;SDS011;50264;52.088;5.296;2023-04-23T05:10:31;63.3;;;51.4;;
64022;SDS011;50264;52.088;5.296;2023-04-23T05:12:08;73.7;;;51.7;;
64022;SDS011;50264;52.088;5.296;2023-04-23T05:15:21;82.0;;;57.3;;
64022;SDS011;50264;52.088;5.296;2023-04-23T05:16:57;73.91;;;54.3;;
64022;SDS011;50264;52.088;5.296;2023-04-23T05:18:33;64.41;;;50.4;;
64022;SDS011;50264;52.088;5.296;2023-04-23T05:20:10;60.3;;;48.5;;
64022;SDS011;50264;52.088;5.296;2023-04-23T05:23:23;74.7;;;57.5;;
64022;SDS011;50264;52.088;5.296;2023-04-23T05:24:59;76.41;;;54.9;;
64022;SDS011;50264;52.088;5.296;2023-04-23T05:26:35;72.91;;;51.7;;
64022;SDS011;50264;52.088;5.296;2023-04-23T05:29:48;74.41;;;54.3;;
64022;SDS011;50264;52.088;5.296;2023-04-23T05:31:24;78.8;;;58.4;;
64022;SDS011;50264;52.088;5.296;2023-04-23T05:33:01;75.91;;;55.2;;
64022;SDS011;50264;52.088;5.296;2023-04-23T05:36:14;76.7;;;55.6;;
64022;SDS011;50264;52.088;5.296;2023-04-23T05:37:50;66.41;;;51.6;;
64022;SDS011;50264;52.088;5.296;2023-04-23T05:39:26;65.41;;;51.3;;
64022;SDS011;50264;52.088;5.296;2023-04-23T05:41:03;64.2;;;49.0;;
64022;SDS011;50264;52.088;5.296;2023-04-23T05:44:15;58.1;;;46.9;;
64022;SDS011;50264;52.088;5.296;2023-04-23T05:45:51;63.1;;;49.9;;
64022;SDS011;50264;52.088;5.296;2023-04-23T05:47:27;77.3;;;53.9;;
64022;SDS011;50264;52.088;5.296;2023-04-23T05:50:40;63.9;;;49.6;;
64022;SDS011;50264;52.088;5.296;2023-04-23T05:52:16;79.91;;;54.7;;
64022;SDS011;50264;52.088;5.296;2023-04-23T05:53:54;67.41;;;51.7;;
64022;SDS011;50264;52.088;5.296;2023-04-23T05:57:06;69.11;;;52.1;;
64022;SDS011;50264;52.088;5.296;2023-04-23T05:58:42;76.7;;;53.9;;
64022;SDS011;50264;52.088;5.296;2023-04-23T06:00:18;58.3;;;47.4;;
64022;SDS011;50264;52.088;5.296;2023-04-23T06:01:54;65.2;;;53.8;;
64022;SDS011;50264;52.088;5.296;2023-04-23T06:05:07;63.9;;;48.5;;
64022;SDS011;50264;52.088;5.296;2023-04-23T06:06:44;56.5;;;46.0;;
64022;SDS011;50264;52.088;5.296;2023-04-23T06:08:20;59.4;;;46.1;;
64022;SDS011;50264;52.088;5.296;2023-04-23T06:11:32;61.9;;;47.8;;
64022;SDS011;50264;52.088;5.296;2023-04-23T06:13:08;60.0;;;47.9;;
64022;SDS011;50264;52.088;5.296;2023-04-23T06:14:44;58.9;;;45.7;;
64022;SDS011;50264;52.088;5.296;2023-04-23T06:17:59;66.2;;;49.3;;
64022;SDS011;50264;52.088;5.296;2023-04-23T06:19:35;63.5;;;51.5;;
64022;SDS011;50264;52.088;5.296;2023-04-23T06:21:11;52.3;;;43.5;;
64022;SDS011;50264;52.088;5.296;2023-04-23T06:22:48;55.8;;;46.9;;
64022;SDS011;50264;52.088;5.296;2023-04-23T06:26:01;55.9;;;44.7;;
64022;SDS011;50264;52.088;5.296;2023-04-23T06:27:37;54.7;;;44.7;;
64022;SDS011;50264;52.088;5.296;2023-04-23T06:29:14;59.8;;;44.1;;
64022;SDS011;50264;52.088;5.296;2023-04-23T06:32:27;46.5;;;40.21;;
64022;SDS011;50264;52.088;5.296;2023-04-23T06:34:03;57.0;;;44.7;;
64022;SDS011;50264;52.088;5.296;2023-04-23T06:35:39;53.4;;;44.1;;
64022;SDS011;50264;52.088;5.296;2023-04-23T06:38:52;45.0;;;39.31;;
64022;SDS011;50264;52.088;5.296;2023-04-23T06:40:28;51.3;;;39.21;;
64022;SDS011;50264;52.088;5.296;2023-04-23T06:42:05;44.7;;;39.71;;
64022;SDS011;50264;52.088;5.296;2023-04-23T06:45:17;47.2;;;41.3;;
64022;SDS011;50264;52.088;5.296;2023-04-23T06:46:54;41.3;;;35.9;;
64022;SDS011;50264;52.088;5.296;2023-04-23T06:48:30;42.4;;;37.81;;
64022;SDS011;50264;52.088;5.296;2023-04-23T06:50:07;42.0;;;34.5;;
64022;SDS011;50264;52.088;5.296;2023-04-23T06:53:21;41.3;;;34.9;;
64022;SDS011;50264;52.088;5.296;2023-04-23T06:54:57;42.8;;;35.1;;
64022;SDS011;50264;52.088;5.296;2023-04-23T06:56:33;35.5;;;31.6;;
64022;SDS011;50264;52.088;5.296;2023-04-23T06:59:45;37.81;;;31.5;;
64022;SDS011;50264;52.088;5.296;2023-04-23T07:01:22;38.5;;;31.5;;
64022;SDS011;50264;52.088;5.296;2023-04-23T07:02:58;33.21;;;29.7;;
64022;SDS011;50264;52.088;5.296;2023-04-23T07:06:11;31.9;;;28.4;;
64022;SDS011;50264;52.088;5.296;2023-04-23T07:07:48;37.31;;;33.21;;
64022;SDS011;50264;52.088;5.296;2023-04-23T07:09:25;33.0;;;28.7;;
64022;SDS011;50264;52.088;5.296;2023-04-23T07:11:01;33.1;;;29.1;;
64022;SDS011;50264;52.088;5.296;2023-04-23T07:14:15;28.2;;;24.8;;
64022;SDS011;50264;52.088;5.296;2023-04-23T07:15:51;26.8;;;23.9;;
64022;SDS011;50264;52.088;5.296;2023-04-23T07:17:27;26.2;;;22.7;;
64022;SDS011;50264;52.088;5.296;2023-04-23T07:20:39;23.3;;;20.8;;
64022;SDS011;50264;52.088;5.296;2023-04-23T07:22:16;25.9;;;21.6;;
64022;SDS011;50264;52.088;5.296;2023-04-23T07:23:53;24.7;;;20.6;;
64022;SDS011;50264;52.088;5.296;2023-04-23T07:27:07;27.9;;;20.2;;
64022;SDS011;50264;52.088;5.296;2023-04-23T07:28:44;24.8;;;18.91;;
64022;SDS011;50264;52.088;5.296;2023-04-23T07:30:23;24.4;;;20.11;;
64022;SDS011;50264;52.088;5.296;2023-04-23T07:32:00;22.4;;;19.61;;
64022;SDS011;50264;52.088;5.296;2023-04-23T07:35:13;19.91;;;17.5;;
64022;SDS011;50264;52.088;5.296;2023-04-23T07:36:49;22.4;;;17.91;;
64022;SDS011;50264;52.088;5.296;2023-04-23T07:38:26;21.3;;;17.0;;
64022;SDS011;50264;52.088;5.296;2023-04-23T07:41:41;20.6;;;16.0;;
64022;SDS011;50264;52.088;5.296;2023-04-23T07:43:17;17.11;;;14.7;;
64022;SDS011;50264;52.088;5.296;2023-04-23T07:46:29;15.4;;;13.9;;
64022;SDS011;50264;52.088;5.296;2023-04-23T07:49:42;23.1;;;15.4;;
64022;SDS011;50264;52.088;5.296;2023-04-23T07:51:20;19.2;;;14.3;;
64022;SDS011;50264;52.088;5.296;2023-04-23T07:52:57;17.91;;;15.0;;
64022;SDS011;50264;52.088;5.296;2023-04-23T07:56:09;18.91;;;14.4;;
64022;SDS011;50264;52.088;5.296;2023-04-23T07:57:46;16.7;;;13.3;;
64022;SDS011;50264;52.088;5.296;2023-04-23T07:59:22;20.6;;;14.3;;
64022;SDS011;50264;52.088;5.296;2023-04-23T08:02:37;19.61;;;13.7;;
64022;SDS011;50264;52.088;5.296;2023-04-23T08:04:14;19.61;;;13.8;;
64022;SDS011;50264;52.088;5.296;2023-04-23T08:05:50;14.8;;;12.4;;
64022;SDS011;50264;52.088;5.296;2023-04-23T08:07:26;20.0;;;12.5;;
64022;SDS011;50264;52.088;5.296;2023-04-23T08:10:39;19.3;;;12.0;;
64022;SDS011;50264;52.088;5.296;2023-04-23T08:12:17;14.8;;;12.1;;
64022;SDS011;50264;52.088;5.296;2023-04-23T08:13:54;12.9;;;10.5;;
64022;SDS011;50264;52.088;5.296;2023-04-23T08:17:07;12.5;;;11.1;;
64022;SDS011;50264;52.088;5.296;2023-04-23T08:18:43;17.7;;;11.0;;
64022;SDS011;50264;52.088;5.296;2023-04-23T08:20:20;14.5;;;10.4;;
64022;SDS011;50264;52.088;5.296;2023-04-23T08:23:32;18.91;;;10.6;;
64022;SDS011;50264;52.088;5.296;2023-04-23T08:25:09;15.6;;;9.9;;
64022;SDS011;50264;52.088;5.296;2023-04-23T08:26:46;14.5;;;9.9;;
64022;SDS011;50264;52.088;5.296;2023-04-23T08:28:22;13.3;;;9.6;;
64022;SDS011;50264;52.088;5.296;2023-04-23T08:31:35;11.6;;;8.6;;
64022;SDS011;50264;52.088;5.296;2023-04-23T08:33:12;13.3;;;8.81;;
64022;SDS011;50264;52.088;5.296;2023-04-23T08:34:49;14.0;;;8.2;;
64022;SDS011;50264;52.088;5.296;2023-04-23T08:38:01;12.4;;;8.2;;
64022;SDS011;50264;52.088;5.296;2023-04-23T08:39:38;15.5;;;8.9;;
64022;SDS011;50264;52.088;5.296;2023-04-23T08:41:17;12.7;;;8.0;;
64022;SDS011;50264;52.088;5.296;2023-04-23T08:44:39;12.1;;;7.4;;
64022;SDS011;50264;52.088;5.296;2023-04-23T08:46:17;13.4;;;7.1;;
64022;SDS011;50264;52.088;5.296;2023-04-23T08:47:55;14.4;;;6.9;;
64022;SDS011;50264;52.088;5.296;2023-04-23T08:49:34;12.0;;;6.6;;
64022;SDS011;50264;52.088;5.296;2023-04-23T08:52:56;12.6;;;7.4;;
64022;SDS011;50264;52.088;5.296;2023-04-23T08:54:32;15.3;;;7.3;;
64022;SDS011;50264;52.088;5.296;2023-04-23T08:56:12;14.2;;;7.6;;
64022;SDS011;50264;52.088;5.296;2023-04-23T08:57:49;14.9;;;7.3;;
64022;SDS011;50264;52.088;5.296;2023-04-23T09:01:05;13.6;;;7.1;;
64022;SDS011;50264;52.088;5.296;2023-04-23T09:02:43;13.1;;;6.6;;
64022;SDS011;50264;52.088;5.296;2023-04-23T09:04:20;12.9;;;6.3;;
64022;SDS011;50264;52.088;5.296;2023-04-23T09:07:34;15.4;;;6.2;;
64022;SDS011;50264;52.088;5.296;2023-04-23T09:09:11;12.5;;;6.6;;
64022;SDS011;50264;52.088;5.296;2023-04-23T09:10:51;14.9;;;6.3;;
64022;SDS011;50264;52.088;5.296;2023-04-23T09:12:31;15.8;;;5.9;;
64022;SDS011;50264;52.088;5.296;2023-04-23T09:15:47;16.2;;;6.5;;
64022;SDS011;50264;52.088;5.296;2023-04-23T09:17:24;13.5;;;6.0;;
64022;SDS011;50264;52.088;5.296;2023-04-23T09:19:04;15.8;;;7.7;;
64022;SDS011;50264;52.088;5.296;2023-04-23T09:20:42;14.4;;;6.2;;
64022;SDS011;50264;52.088;5.296;2023-04-23T09:24:27;8.5;;;5.9;;
64022;SDS011;50264;52.088;5.296;2023-04-23T09:26:04;13.0;;;5.7;;
64022;SDS011;50264;52.088;5.296;2023-04-23T09:27:41;10.8;;;5.4;;
64022;SDS011;50264;52.088;5.296;2023-04-23T09:29:19;11.3;;;5.8;;
64022;SDS011;50264;52.088;5.296;2023-04-23T09:32:34;13.7;;;6.0;;
64022;SDS011;50264;52.088;5.296;2023-04-23T09:34:13;9.71;;;5.5;;
64022;SDS011;50264;52.088;5.296;2023-04-23T09:35:50;17.0;;;5.4;;
64022;SDS011;50264;52.088;5.296;2023-04-23T09:37:26;10.3;;;5.5;;
64022;SDS011;50264;52.088;5.296;2023-04-23T09:40:46;8.5;;;4.7;;
64022;SDS011;50264;52.088;5.296;2023-04-23T09:42:25;12.2;;;5.0;;
64022;SDS011;50264;52.088;5.296;2023-04-23T09:44:02;11.6;;;4.91;;
64022;SDS011;50264;52.088;5.296;2023-04-23T09:47:23;16.9;;;5.2;;
64022;SDS011;50264;52.088;5.296;2023-04-23T09:49:00;16.3;;;5.11;;
64022;SDS011;50264;52.088;5.296;2023-04-23T09:50:39;13.2;;;4.91;;
64022;SDS011;50264;52.088;5.296;2023-04-23T09:52:16;10.8;;;4.0;;
64022;SDS011;50264;52.088;5.296;2023-04-23T09:55:30;11.8;;;5.11;;
64022;SDS011;50264;52.088;5.296;2023-04-23T09:57:07;11.3;;;4.3;;
64022;SDS011;50264;52.088;5.296;2023-04-23T09:58:44;12.2;;;4.7;;
64022;SDS011;50264;52.088;5.296;2023-04-23T10:01:57;13.0;;;4.5;;
64022;SDS011;50264;52.088;5.296;2023-04-23T10:03:40;12.0;;;4.2;;
64022;SDS011;50264;52.088;5.296;2023-04-23T10:05:17;13.3;;;4.2;;
64022;SDS011;50264;52.088;5.296;2023-04-23T10:06:55;10.4;;;4.0;;
64022;SDS011;50264;52.088;5.296;2023-04-23T10:10:10;8.4;;;4.3;;
64022;SDS011;50264;52.088;5.296;2023-04-23T10:11:47;11.8;;;4.41;;
64022;SDS011;50264;52.088;5.296;2023-04-23T10:13:26;9.81;;;4.0;;
64022;SDS011;50264;52.088;5.296;2023-04-23T10:15:03;8.4;;;3.4;;
64022;SDS011;50264;52.088;5.296;2023-04-23T10:18:19;11.4;;;3.7;;
64022;SDS011;50264;52.088;5.296;2023-04-23T10:19:56;8.2;;;3.1;;
64022;SDS011;50264;52.088;5.296;2023-04-23T10:21:35;8.81;;;3.4;;
64022;SDS011;50264;52.088;5.296;2023-04-23T10:24:54;12.6;;;3.5;;
64022;SDS011;50264;52.088;5.296;2023-04-23T10:26:33;9.4;;;3.5;;
64022;SDS011;50264;52.088;5.296;2023-04-23T10:28:13;7.3;;;3.3;;
64022;SDS011;50264;52.088;5.296;2023-04-23T10:29:54;10.9;;;3.9;;
64022;SDS011;50264;52.088;5.296;2023-04-23T10:33:09;9.81;;;4.0;;
64022;SDS011;50264;52.088;5.296;2023-04-23T10:34:47;11.7;;;3.8;;
64022;SDS011;50264;52.088;5.296;2023-04-23T10:36:23;8.6;;;3.8;;
64022;SDS011;50264;52.088;5.296;2023-04-23T10:39:39;9.1;;;3.8;;
64022;SDS011;50264;52.088;5.296;2023-04-23T10:41:20;9.4;;;3.7;;
64022;SDS011;50264;52.088;5.296;2023-04-23T10:43:02;9.21;;;3.7;;
64022;SDS011;50264;52.088;5.296;2023-04-23T10:44:38;7.1;;;3.5;;
64022;SDS011;50264;52.088;5.296;2023-04-23T10:48:10;7.1;;;3.3;;
64022;SDS011;50264;52.088;5.296;2023-04-23T10:49:47;10.0;;;3.2;;
64022;SDS011;50264;52.088;5.296;2023-04-23T10:51:31;10.8;;;3.1;;
64022;SDS011;50264;52.088;5.296;2023-04-23T10:53:09;8.1;;;3.1;;
64022;SDS011;50264;52.088;5.296;2023-04-23T10:54:56;12.8;;;3.8;;
64022;SDS011;50264;52.088;5.296;2023-04-23T10:58:09;9.5;;;3.2;;
64022;SDS011;50264;52.088;5.296;2023-04-23T10:59:50;7.8;;;3.1;;
64022;SDS011;50264;52.088;5.296;2023-04-23T11:01:27;7.2;;;2.6;;
64022;SDS011;50264;52.088;5.296;2023-04-23T11:04:40;8.81;;;2.7;;
64022;SDS011;50264;52.088;5.296;2023-04-23T11:08:27;13.7;;;2.9;;
64022;SDS011;50264;52.088;5.296;2023-04-23T11:10:09;21.6;;;3.2;;
64022;SDS011;50264;52.088;5.296;2023-04-23T11:11:47;8.2;;;3.0;;
64022;SDS011;50264;52.088;5.296;2023-04-23T11:15:09;8.71;;;2.7;;
64022;SDS011;50264;52.088;5.296;2023-04-23T11:16:47;10.6;;;2.7;;
64022;SDS011;50264;52.088;5.296;2023-04-23T11:18:23;7.8;;;2.31;;
64022;SDS011;50264;52.088;5.296;2023-04-23T11:20:08;9.9;;;2.8;;
64022;SDS011;50264;52.088;5.296;2023-04-23T11:23:40;9.4;;;2.7;;
64022;SDS011;50264;52.088;5.296;2023-04-23T11:25:21;8.1;;;2.5;;
64022;SDS011;50264;52.088;5.296;2023-04-23T11:26:58;6.8;;;2.5;;
64022;SDS011;50264;52.088;5.296;2023-04-23T11:28:35;6.3;;;2.6;;
64022;SDS011;50264;52.088;5.296;2023-04-23T11:31:57;6.5;;;2.21;;
64022;SDS011;50264;52.088;5.296;2023-04-23T11:33:34;6.9;;;2.31;;
64022;SDS011;50264;52.088;5.296;2023-04-23T11:35:12;7.2;;;2.4;;
64022;SDS011;50264;52.088;5.296;2023-04-23T11:36:50;5.0;;;2.4;;
64022;SDS011;50264;52.088;5.296;2023-04-23T11:40:07;12.5;;;2.5;;
64022;SDS011;50264;52.088;5.296;2023-04-23T11:41:45;5.3;;;2.1;;
64022;SDS011;50264;52.088;5.296;2023-04-23T11:43:22;9.4;;;2.21;;
64022;SDS011;50264;52.088;5.296;2023-04-23T11:46:35;5.6;;;2.21;;
64022;SDS011;50264;52.088;5.296;2023-04-23T11:48:11;7.2;;;2.1;;
64022;SDS011;50264;52.088;5.296;2023-04-23T11:49:47;8.6;;;2.6;;
64022;SDS011;50264;52.088;5.296;2023-04-23T11:51:24;5.3;;;1.9;;
64022;SDS011;50264;52.088;5.296;2023-04-23T11:54:40;6.9;;;2.4;;
64022;SDS011;50264;52.088;5.296;2023-04-23T11:56:17;7.0;;;2.4;;
64022;SDS011;50264;52.088;5.296;2023-04-23T11:57:55;9.6;;;2.1;;
64022;SDS011;50264;52.088;5.296;2023-04-23T12:01:09;8.71;;;2.21;;
64022;SDS011;50264;52.088;5.296;2023-04-23T12:02:49;5.7;;;2.1;;
64022;SDS011;50264;52.088;5.296;2023-04-23T12:04:31;7.5;;;2.1;;
64022;SDS011;50264;52.088;5.296;2023-04-23T12:06:08;8.31;;;2.1;;
64022;SDS011;50264;52.088;5.296;2023-04-23T12:09:24;6.0;;;2.0;;
64022;SDS011;50264;52.088;5.296;2023-04-23T12:11:01;9.0;;;2.4;;
64022;SDS011;50264;52.088;5.296;2023-04-23T12:12:38;11.4;;;2.6;;
64022;SDS011;50264;52.088;5.296;2023-04-23T12:15:53;5.8;;;1.9;;
64022;SDS011;50264;52.088;5.296;2023-04-23T12:17:32;9.5;;;2.21;;
64022;SDS011;50264;52.088;5.296;2023-04-23T12:19:08;6.3;;;2.21;;
64022;SDS011;50264;52.088;5.296;2023-04-23T12:20:48;7.0;;;2.1;;
64022;SDS011;50264;52.088;5.296;2023-04-23T12:24:02;12.8;;;2.4;;
64022;SDS011;50264;52.088;5.296;2023-04-23T12:25:39;5.2;;;1.6;;
64022;SDS011;50264;52.088;5.296;2023-04-23T12:27:17;5.4;;;2.0;;
64022;SDS011;50264;52.088;5.296;2023-04-23T12:30:41;6.9;;;2.4;;
64022;SDS011;50264;52.088;5.296;2023-04-23T12:32:19;5.9;;;2.21;;
64022;SDS011;50264;52.088;5.296;2023-04-23T12:34:01;7.4;;;2.0;;
64022;SDS011;50264;52.088;5.296;2023-04-23T12:35:39;5.4;;;2.1;;
64022;SDS011;50264;52.088;5.296;2023-04-23T12:40:28;8.31;;;2.31;;
64022;SDS011;50264;52.088;5.296;2023-04-23T12:42:04;5.3;;;1.9;;
64022;SDS011;50264;52.088;5.296;2023-04-23T12:43:42;4.2;;;1.9;;